LICR/REG METAR and TAF weather

Enter ICAO airport designator
Station Type Date Time Source
LICR METAR 2021/07/26 14:20 UTC NOAA

LICR 261420Z AUTO 20010KT 9999 FEW240/// 30/20 Q1016


Station Type Date Time Source
LICR Decoded METAR 2021/07/26 14:20 UTC NOAA

Reggio Calabria, Italy (LICR) 38-04N 015-39E 21M
Jul 26, 2021 - 10:20 AM EDT / 2021.07.26 1420 UTC
Wind: from the SSW (200 degrees) at 12 MPH (10 KT):0
Visibility: greater than 7 mile(s):0
Sky conditions: mostly clear
Temperature: 86 F (30 C)
Dew Point: 68 F (20 C)
Relative Humidity: 55%
Pressure (altimeter): 30.00 in. Hg (1016 hPa)
ob: LICR 261420Z AUTO 20010KT 9999 FEW240/// 30/20 Q1016
cycle: 14

Station Type Date Time Source
LICR TAF 2021/07/26 12:27 UTC NOAA

TAF LICR 261100Z 2612/2712 20012KT CAVOK
BECMG 2708/2710 36012KT

Example: see airport list